sensor_id;sensor_type;location;lat;lon;timestamp;P1;durP1;ratioP1;P2;durP2;ratioP2
57443;SDS011;43289;52.962;6.196;2023-12-20T00:00:05;12.30;;;2.70;;
57443;SDS011;43289;52.962;6.196;2023-12-20T00:02:31;17.17;;;3.72;;
57443;SDS011;43289;52.962;6.196;2023-12-20T00:04:57;12.02;;;3.08;;
57443;SDS011;43289;52.962;6.196;2023-12-20T00:07:23;14.25;;;3.25;;
57443;SDS011;43289;52.962;6.196;2023-12-20T00:09:49;13.52;;;3.03;;
57443;SDS011;43289;52.962;6.196;2023-12-20T00:12:16;11.77;;;2.92;;
57443;SDS011;43289;52.962;6.196;2023-12-20T00:14:42;14.43;;;3.13;;
57443;SDS011;43289;52.962;6.196;2023-12-20T00:17:08;12.98;;;3.08;;
57443;SDS011;43289;52.962;6.196;2023-12-20T00:19:34;17.75;;;2.63;;
57443;SDS011;43289;52.962;6.196;2023-12-20T00:22:00;11.77;;;2.90;;
57443;SDS011;43289;52.962;6.196;2023-12-20T00:24:26;12.90;;;2.75;;
57443;SDS011;43289;52.962;6.196;2023-12-20T00:26:52;13.15;;;3.38;;
57443;SDS011;43289;52.962;6.196;2023-12-20T00:29:18;8.90;;;3.40;;
57443;SDS011;43289;52.962;6.196;2023-12-20T00:31:44;15.35;;;3.45;;
57443;SDS011;43289;52.962;6.196;2023-12-20T00:34:10;12.63;;;3.30;;
57443;SDS011;43289;52.962;6.196;2023-12-20T00:36:36;14.75;;;3.33;;
57443;SDS011;43289;52.962;6.196;2023-12-20T00:39:03;13.25;;;3.42;;
57443;SDS011;43289;52.962;6.196;2023-12-20T00:41:29;13.38;;;3.00;;
57443;SDS011;43289;52.962;6.196;2023-12-20T00:43:55;11.85;;;2.90;;
57443;SDS011;43289;52.962;6.196;2023-12-20T00:46:21;13.88;;;3.33;;
57443;SDS011;43289;52.962;6.196;2023-12-20T00:48:47;10.98;;;2.92;;
57443;SDS011;43289;52.962;6.196;2023-12-20T00:51:13;12.35;;;2.95;;
57443;SDS011;43289;52.962;6.196;2023-12-20T00:53:39;17.02;;;4.60;;
57443;SDS011;43289;52.962;6.196;2023-12-20T00:56:08;13.68;;;3.30;;
57443;SDS011;43289;52.962;6.196;2023-12-20T00:58:34;15.77;;;4.05;;
57443;SDS011;43289;52.962;6.196;2023-12-20T01:01:00;9.50;;;2.85;;
57443;SDS011;43289;52.962;6.196;2023-12-20T01:03:28;17.60;;;4.82;;
57443;SDS011;43289;52.962;6.196;2023-12-20T01:05:54;9.32;;;3.10;;
57443;SDS011;43289;52.962;6.196;2023-12-20T01:08:21;21.70;;;3.88;;
57443;SDS011;43289;52.962;6.196;2023-12-20T01:10:47;16.00;;;5.53;;
57443;SDS011;43289;52.962;6.196;2023-12-20T01:13:13;10.70;;;3.00;;
57443;SDS011;43289;52.962;6.196;2023-12-20T01:15:39;13.88;;;3.85;;
57443;SDS011;43289;52.962;6.196;2023-12-20T01:18:05;7.55;;;3.08;;
57443;SDS011;43289;52.962;6.196;2023-12-20T01:23:50;16.13;;;4.03;;
57443;SDS011;43289;52.962;6.196;2023-12-20T01:26:16;16.77;;;4.55;;
57443;SDS011;43289;52.962;6.196;2023-12-20T01:28:42;16.75;;;4.18;;
57443;SDS011;43289;52.962;6.196;2023-12-20T01:31:08;18.58;;;4.03;;
57443;SDS011;43289;52.962;6.196;2023-12-20T01:33:34;14.30;;;3.47;;
57443;SDS011;43289;52.962;6.196;2023-12-20T01:36:00;17.60;;;6.32;;
57443;SDS011;43289;52.962;6.196;2023-12-20T01:38:27;13.82;;;3.47;;
57443;SDS011;43289;52.962;6.196;2023-12-20T01:40:53;16.25;;;4.22;;
57443;SDS011;43289;52.962;6.196;2023-12-20T01:43:19;14.68;;;3.47;;
57443;SDS011;43289;52.962;6.196;2023-12-20T01:45:45;16.70;;;4.38;;
57443;SDS011;43289;52.962;6.196;2023-12-20T01:51:34;15.77;;;4.15;;
57443;SDS011;43289;52.962;6.196;2023-12-20T01:54:01;15.05;;;3.97;;
57443;SDS011;43289;52.962;6.196;2023-12-20T01:56:28;14.15;;;4.03;;
57443;SDS011;43289;52.962;6.196;2023-12-20T01:58:54;17.00;;;3.95;;
57443;SDS011;43289;52.962;6.196;2023-12-20T02:01:21;16.08;;;3.25;;
57443;SDS011;43289;52.962;6.196;2023-12-20T02:03:47;17.15;;;3.97;;
57443;SDS011;43289;52.962;6.196;2023-12-20T02:06:14;10.57;;;2.42;;
57443;SDS011;43289;52.962;6.196;2023-12-20T02:08:40;17.23;;;3.72;;
57443;SDS011;43289;52.962;6.196;2023-12-20T02:11:06;14.35;;;3.88;;
57443;SDS011;43289;52.962;6.196;2023-12-20T02:13:32;15.40;;;4.43;;
57443;SDS011;43289;52.962;6.196;2023-12-20T02:16:04;20.25;;;4.03;;
57443;SDS011;43289;52.962;6.196;2023-12-20T02:18:30;15.18;;;4.18;;
57443;SDS011;43289;52.962;6.196;2023-12-20T02:20:56;20.15;;;4.95;;
57443;SDS011;43289;52.962;6.196;2023-12-20T02:23:35;20.52;;;4.45;;
57443;SDS011;43289;52.962;6.196;2023-12-20T02:26:01;17.70;;;3.88;;
57443;SDS011;43289;52.962;6.196;2023-12-20T02:28:27;17.20;;;5.78;;
57443;SDS011;43289;52.962;6.196;2023-12-20T02:31:03;17.00;;;4.78;;
57443;SDS011;43289;52.962;6.196;2023-12-20T02:33:29;23.67;;;4.75;;
57443;SDS011;43289;52.962;6.196;2023-12-20T02:35:55;20.35;;;4.40;;
57443;SDS011;43289;52.962;6.196;2023-12-20T02:38:21;17.45;;;4.57;;
57443;SDS011;43289;52.962;6.196;2023-12-20T02:40:47;24.95;;;5.07;;
57443;SDS011;43289;52.962;6.196;2023-12-20T02:43:13;23.40;;;4.03;;
57443;SDS011;43289;52.962;6.196;2023-12-20T02:49:02;15.00;;;3.95;;
57443;SDS011;43289;52.962;6.196;2023-12-20T02:51:28;19.48;;;5.00;;
57443;SDS011;43289;52.962;6.196;2023-12-20T02:53:54;16.00;;;4.13;;
57443;SDS011;43289;52.962;6.196;2023-12-20T02:56:20;18.00;;;4.43;;
57443;SDS011;43289;52.962;6.196;2023-12-20T02:58:46;34.22;;;6.22;;
57443;SDS011;43289;52.962;6.196;2023-12-20T03:01:12;25.25;;;6.10;;
57443;SDS011;43289;52.962;6.196;2023-12-20T03:03:57;25.42;;;5.28;;
57443;SDS011;43289;52.962;6.196;2023-12-20T03:06:23;15.75;;;4.35;;
57443;SDS011;43289;52.962;6.196;2023-12-20T03:08:50;17.00;;;4.50;;
57443;SDS011;43289;52.962;6.196;2023-12-20T03:11:16;19.42;;;4.72;;
57443;SDS011;43289;52.962;6.196;2023-12-20T03:13:42;20.90;;;4.55;;
57443;SDS011;43289;52.962;6.196;2023-12-20T03:16:11;15.50;;;4.55;;
57443;SDS011;43289;52.962;6.196;2023-12-20T03:18:38;18.55;;;4.82;;
57443;SDS011;43289;52.962;6.196;2023-12-20T03:21:04;19.23;;;4.30;;
57443;SDS011;43289;52.962;6.196;2023-12-20T03:23:30;15.88;;;4.78;;
57443;SDS011;43289;52.962;6.196;2023-12-20T03:25:57;18.73;;;4.03;;
57443;SDS011;43289;52.962;6.196;2023-12-20T03:28:24;12.30;;;4.43;;
57443;SDS011;43289;52.962;6.196;2023-12-20T03:30:50;17.27;;;5.38;;
57443;SDS011;43289;52.962;6.196;2023-12-20T03:33:16;21.92;;;5.13;;
57443;SDS011;43289;52.962;6.196;2023-12-20T03:35:42;20.48;;;5.47;;
57443;SDS011;43289;52.962;6.196;2023-12-20T03:38:08;18.52;;;5.43;;
57443;SDS011;43289;52.962;6.196;2023-12-20T03:40:34;18.77;;;5.03;;
57443;SDS011;43289;52.962;6.196;2023-12-20T03:43:00;14.82;;;5.40;;
57443;SDS011;43289;52.962;6.196;2023-12-20T03:45:26;15.02;;;3.63;;
57443;SDS011;43289;52.962;6.196;2023-12-20T03:47:52;17.90;;;4.63;;
57443;SDS011;43289;52.962;6.196;2023-12-20T03:50:23;15.18;;;4.40;;
57443;SDS011;43289;52.962;6.196;2023-12-20T03:52:49;24.02;;;4.63;;
57443;SDS011;43289;52.962;6.196;2023-12-20T03:55:15;24.02;;;6.45;;
57443;SDS011;43289;52.962;6.196;2023-12-20T03:57:41;15.43;;;3.58;;
57443;SDS011;43289;52.962;6.196;2023-12-20T04:00:08;18.23;;;4.07;;
57443;SDS011;43289;52.962;6.196;2023-12-20T04:02:40;15.55;;;4.35;;
57443;SDS011;43289;52.962;6.196;2023-12-20T04:05:07;20.65;;;5.72;;
57443;SDS011;43289;52.962;6.196;2023-12-20T04:07:33;20.63;;;4.70;;
57443;SDS011;43289;52.962;6.196;2023-12-20T04:09:59;17.15;;;5.43;;
57443;SDS011;43289;52.962;6.196;2023-12-20T04:12:27;12.95;;;3.88;;
57443;SDS011;43289;52.962;6.196;2023-12-20T04:14:53;20.42;;;4.47;;
57443;SDS011;43289;52.962;6.196;2023-12-20T04:17:19;17.75;;;3.97;;
57443;SDS011;43289;52.962;6.196;2023-12-20T04:19:47;18.38;;;5.40;;
57443;SDS011;43289;52.962;6.196;2023-12-20T04:22:13;18.80;;;5.45;;
57443;SDS011;43289;52.962;6.196;2023-12-20T04:24:39;21.35;;;4.45;;
57443;SDS011;43289;52.962;6.196;2023-12-20T04:27:07;19.42;;;4.60;;
57443;SDS011;43289;52.962;6.196;2023-12-20T04:29:33;18.02;;;5.97;;
57443;SDS011;43289;52.962;6.196;2023-12-20T04:31:59;16.27;;;4.97;;
57443;SDS011;43289;52.962;6.196;2023-12-20T04:34:26;13.98;;;3.80;;
57443;SDS011;43289;52.962;6.196;2023-12-20T04:36:52;13.07;;;5.05;;
57443;SDS011;43289;52.962;6.196;2023-12-20T04:39:18;25.85;;;4.85;;
57443;SDS011;43289;52.962;6.196;2023-12-20T04:41:44;19.30;;;4.72;;
57443;SDS011;43289;52.962;6.196;2023-12-20T04:44:12;20.15;;;4.50;;
57443;SDS011;43289;52.962;6.196;2023-12-20T04:46:38;15.73;;;4.82;;
57443;SDS011;43289;52.962;6.196;2023-12-20T04:49:04;14.77;;;5.10;;
57443;SDS011;43289;52.962;6.196;2023-12-20T04:51:33;14.75;;;4.00;;
57443;SDS011;43289;52.962;6.196;2023-12-20T04:53:59;20.85;;;5.30;;
57443;SDS011;43289;52.962;6.196;2023-12-20T04:56:25;16.27;;;4.07;;
57443;SDS011;43289;52.962;6.196;2023-12-20T04:58:51;19.60;;;6.47;;
57443;SDS011;43289;52.962;6.196;2023-12-20T05:01:17;20.75;;;5.18;;
57443;SDS011;43289;52.962;6.196;2023-12-20T05:03:43;26.35;;;6.82;;
57443;SDS011;43289;52.962;6.196;2023-12-20T05:06:09;17.50;;;4.57;;
57443;SDS011;43289;52.962;6.196;2023-12-20T05:11:58;20.48;;;6.43;;
57443;SDS011;43289;52.962;6.196;2023-12-20T05:14:25;20.55;;;4.82;;
57443;SDS011;43289;52.962;6.196;2023-12-20T05:16:51;25.75;;;4.88;;
57443;SDS011;43289;52.962;6.196;2023-12-20T05:19:17;17.75;;;5.15;;
57443;SDS011;43289;52.962;6.196;2023-12-20T05:21:43;22.67;;;5.13;;
57443;SDS011;43289;52.962;6.196;2023-12-20T05:24:09;17.38;;;4.40;;
57443;SDS011;43289;52.962;6.196;2023-12-20T05:26:35;17.42;;;5.43;;
57443;SDS011;43289;52.962;6.196;2023-12-20T05:29:01;17.42;;;4.80;;
57443;SDS011;43289;52.962;6.196;2023-12-20T05:31:27;14.68;;;4.43;;
57443;SDS011;43289;52.962;6.196;2023-12-20T05:33:53;22.92;;;5.25;;
57443;SDS011;43289;52.962;6.196;2023-12-20T05:36:19;19.00;;;4.90;;
57443;SDS011;43289;52.962;6.196;2023-12-20T05:38:45;20.98;;;5.30;;
57443;SDS011;43289;52.962;6.196;2023-12-20T05:41:11;16.83;;;4.70;;
57443;SDS011;43289;52.962;6.196;2023-12-20T05:43:38;22.15;;;6.20;;
57443;SDS011;43289;52.962;6.196;2023-12-20T05:46:04;26.48;;;5.07;;
57443;SDS011;43289;52.962;6.196;2023-12-20T05:48:30;19.85;;;5.57;;
57443;SDS011;43289;52.962;6.196;2023-12-20T05:50:57;21.92;;;5.53;;
57443;SDS011;43289;52.962;6.196;2023-12-20T05:53:23;23.15;;;4.47;;
57443;SDS011;43289;52.962;6.196;2023-12-20T05:55:49;14.35;;;4.35;;
57443;SDS011;43289;52.962;6.196;2023-12-20T05:58:15;19.58;;;4.28;;
57443;SDS011;43289;52.962;6.196;2023-12-20T06:01:05;15.43;;;4.93;;
57443;SDS011;43289;52.962;6.196;2023-12-20T06:03:33;17.50;;;4.45;;
57443;SDS011;43289;52.962;6.196;2023-12-20T06:05:59;13.55;;;4.20;;
57443;SDS011;43289;52.962;6.196;2023-12-20T06:08:25;20.52;;;4.60;;
57443;SDS011;43289;52.962;6.196;2023-12-20T06:10:51;14.25;;;4.57;;
57443;SDS011;43289;52.962;6.196;2023-12-20T06:13:17;17.35;;;4.32;;
57443;SDS011;43289;52.962;6.196;2023-12-20T06:15:43;22.80;;;5.30;;
57443;SDS011;43289;52.962;6.196;2023-12-20T06:18:09;24.10;;;4.78;;
57443;SDS011;43289;52.962;6.196;2023-12-20T06:20:35;16.50;;;4.90;;
57443;SDS011;43289;52.962;6.196;2023-12-20T06:23:03;13.88;;;4.50;;
57443;SDS011;43289;52.962;6.196;2023-12-20T06:25:29;20.23;;;5.25;;
57443;SDS011;43289;52.962;6.196;2023-12-20T06:27:55;18.65;;;5.07;;
57443;SDS011;43289;52.962;6.196;2023-12-20T06:30:21;20.45;;;4.50;;
57443;SDS011;43289;52.962;6.196;2023-12-20T06:32:47;19.58;;;4.35;;
57443;SDS011;43289;52.962;6.196;2023-12-20T06:35:13;16.88;;;4.35;;
57443;SDS011;43289;52.962;6.196;2023-12-20T06:37:39;20.02;;;4.22;;
57443;SDS011;43289;52.962;6.196;2023-12-20T06:40:07;20.00;;;4.18;;
57443;SDS011;43289;52.962;6.196;2023-12-20T06:42:34;25.30;;;5.57;;
57443;SDS011;43289;52.962;6.196;2023-12-20T06:45:00;21.65;;;4.85;;
57443;SDS011;43289;52.962;6.196;2023-12-20T06:47:26;16.52;;;3.97;;
57443;SDS011;43289;52.962;6.196;2023-12-20T06:49:52;19.52;;;5.15;;
57443;SDS011;43289;52.962;6.196;2023-12-20T06:52:18;21.23;;;4.50;;
57443;SDS011;43289;52.962;6.196;2023-12-20T06:54:51;19.27;;;3.97;;
57443;SDS011;43289;52.962;6.196;2023-12-20T06:57:17;20.92;;;4.35;;
57443;SDS011;43289;52.962;6.196;2023-12-20T06:59:44;15.80;;;3.88;;
57443;SDS011;43289;52.962;6.196;2023-12-20T07:02:10;15.13;;;5.45;;
57443;SDS011;43289;52.962;6.196;2023-12-20T07:04:40;14.40;;;4.40;;
57443;SDS011;43289;52.962;6.196;2023-12-20T07:07:06;19.42;;;5.22;;
57443;SDS011;43289;52.962;6.196;2023-12-20T07:09:32;16.30;;;5.18;;
57443;SDS011;43289;52.962;6.196;2023-12-20T07:11:58;19.70;;;5.10;;
57443;SDS011;43289;52.962;6.196;2023-12-20T07:14:25;20.55;;;4.95;;
57443;SDS011;43289;52.962;6.196;2023-12-20T07:16:51;30.90;;;5.60;;
57443;SDS011;43289;52.962;6.196;2023-12-20T07:19:17;21.42;;;4.82;;
57443;SDS011;43289;52.962;6.196;2023-12-20T07:21:43;21.23;;;5.68;;
57443;SDS011;43289;52.962;6.196;2023-12-20T07:24:09;18.90;;;4.75;;
57443;SDS011;43289;52.962;6.196;2023-12-20T07:26:36;20.95;;;5.00;;
57443;SDS011;43289;52.962;6.196;2023-12-20T07:29:03;16.55;;;4.70;;
57443;SDS011;43289;52.962;6.196;2023-12-20T07:31:29;21.08;;;5.85;;
57443;SDS011;43289;52.962;6.196;2023-12-20T07:33:55;17.92;;;4.78;;
57443;SDS011;43289;52.962;6.196;2023-12-20T07:36:21;18.90;;;5.15;;
57443;SDS011;43289;52.962;6.196;2023-12-20T07:38:47;16.90;;;4.85;;
57443;SDS011;43289;52.962;6.196;2023-12-20T07:41:13;23.02;;;5.03;;
57443;SDS011;43289;52.962;6.196;2023-12-20T07:43:43;17.75;;;4.38;;
57443;SDS011;43289;52.962;6.196;2023-12-20T07:46:09;23.45;;;5.88;;
57443;SDS011;43289;52.962;6.196;2023-12-20T07:48:35;31.83;;;5.53;;
57443;SDS011;43289;52.962;6.196;2023-12-20T07:51:02;14.52;;;4.05;;
57443;SDS011;43289;52.962;6.196;2023-12-20T07:53:29;17.05;;;5.20;;
57443;SDS011;43289;52.962;6.196;2023-12-20T07:55:55;21.42;;;4.65;;
57443;SDS011;43289;52.962;6.196;2023-12-20T07:58:21;10.35;;;3.72;;
57443;SDS011;43289;52.962;6.196;2023-12-20T08:00:47;20.50;;;4.47;;
57443;SDS011;43289;52.962;6.196;2023-12-20T08:03:13;18.02;;;4.35;;
57443;SDS011;43289;52.962;6.196;2023-12-20T08:05:39;19.50;;;4.38;;
57443;SDS011;43289;52.962;6.196;2023-12-20T08:08:06;30.55;;;5.10;;
57443;SDS011;43289;52.962;6.196;2023-12-20T08:10:32;16.17;;;4.03;;
57443;SDS011;43289;52.962;6.196;2023-12-20T08:12:59;14.30;;;4.00;;
57443;SDS011;43289;52.962;6.196;2023-12-20T08:15:25;17.13;;;4.32;;
57443;SDS011;43289;52.962;6.196;2023-12-20T08:17:51;11.10;;;3.35;;
57443;SDS011;43289;52.962;6.196;2023-12-20T08:20:17;17.88;;;5.25;;
57443;SDS011;43289;52.962;6.196;2023-12-20T08:22:43;26.85;;;4.35;;
57443;SDS011;43289;52.962;6.196;2023-12-20T08:25:09;18.13;;;3.85;;
57443;SDS011;43289;52.962;6.196;2023-12-20T08:27:39;17.02;;;4.05;;
57443;SDS011;43289;52.962;6.196;2023-12-20T08:30:07;14.07;;;5.63;;
57443;SDS011;43289;52.962;6.196;2023-12-20T08:32:34;13.05;;;3.38;;
57443;SDS011;43289;52.962;6.196;2023-12-20T08:35:00;22.25;;;4.65;;
57443;SDS011;43289;52.962;6.196;2023-12-20T08:37:26;13.15;;;4.00;;
57443;SDS011;43289;52.962;6.196;2023-12-20T08:39:52;19.20;;;4.50;;
57443;SDS011;43289;52.962;6.196;2023-12-20T08:42:18;15.32;;;3.72;;
57443;SDS011;43289;52.962;6.196;2023-12-20T08:44:44;18.05;;;5.47;;
57443;SDS011;43289;52.962;6.196;2023-12-20T08:47:10;17.20;;;5.47;;
57443;SDS011;43289;52.962;6.196;2023-12-20T08:49:38;18.23;;;5.88;;
57443;SDS011;43289;52.962;6.196;2023-12-20T08:52:04;15.43;;;3.72;;
57443;SDS011;43289;52.962;6.196;2023-12-20T08:54:31;17.42;;;4.70;;
57443;SDS011;43289;52.962;6.196;2023-12-20T08:56:57;19.55;;;4.72;;
57443;SDS011;43289;52.962;6.196;2023-12-20T08:59:23;16.63;;;6.20;;
57443;SDS011;43289;52.962;6.196;2023-12-20T09:01:49;11.73;;;3.90;;
57443;SDS011;43289;52.962;6.196;2023-12-20T09:04:19;18.98;;;3.92;;
57443;SDS011;43289;52.962;6.196;2023-12-20T09:06:45;9.07;;;3.55;;
57443;SDS011;43289;52.962;6.196;2023-12-20T09:09:11;14.57;;;3.50;;
57443;SDS011;43289;52.962;6.196;2023-12-20T09:11:39;16.60;;;5.00;;
57443;SDS011;43289;52.962;6.196;2023-12-20T09:14:05;12.52;;;3.95;;
57443;SDS011;43289;52.962;6.196;2023-12-20T09:16:31;12.98;;;3.83;;
57443;SDS011;43289;52.962;6.196;2023-12-20T09:18:57;15.07;;;3.67;;
57443;SDS011;43289;52.962;6.196;2023-12-20T09:21:23;16.73;;;5.15;;
57443;SDS011;43289;52.962;6.196;2023-12-20T09:23:49;11.75;;;4.38;;
57443;SDS011;43289;52.962;6.196;2023-12-20T09:26:15;6.70;;;2.13;;
57443;SDS011;43289;52.962;6.196;2023-12-20T09:28:41;8.60;;;2.45;;
57443;SDS011;43289;52.962;6.196;2023-12-20T09:31:07;5.97;;;1.38;;
57443;SDS011;43289;52.962;6.196;2023-12-20T09:33:33;7.10;;;2.05;;
57443;SDS011;43289;52.962;6.196;2023-12-20T09:36:00;6.65;;;1.88;;
57443;SDS011;43289;52.962;6.196;2023-12-20T09:38:26;5.32;;;2.30;;
57443;SDS011;43289;52.962;6.196;2023-12-20T09:40:52;5.10;;;1.10;;
57443;SDS011;43289;52.962;6.196;2023-12-20T09:43:23;6.57;;;1.80;;
57443;SDS011;43289;52.962;6.196;2023-12-20T09:45:52;8.98;;;2.13;;
57443;SDS011;43289;52.962;6.196;2023-12-20T09:48:19;7.72;;;1.80;;
57443;SDS011;43289;52.962;6.196;2023-12-20T09:50:45;9.05;;;2.13;;
57443;SDS011;43289;52.962;6.196;2023-12-20T09:53:14;8.25;;;2.05;;
57443;SDS011;43289;52.962;6.196;2023-12-20T09:55:41;6.28;;;1.70;;
57443;SDS011;43289;52.962;6.196;2023-12-20T10:01:13;7.13;;;1.80;;
57443;SDS011;43289;52.962;6.196;2023-12-20T10:03:44;10.98;;;2.13;;
57443;SDS011;43289;52.962;6.196;2023-12-20T10:06:10;7.93;;;2.03;;
57443;SDS011;43289;52.962;6.196;2023-12-20T10:08:36;10.32;;;2.85;;
57443;SDS011;43289;52.962;6.196;2023-12-20T10:11:02;11.88;;;2.20;;
57443;SDS011;43289;52.962;6.196;2023-12-20T10:13:29;9.82;;;2.25;;
57443;SDS011;43289;52.962;6.196;2023-12-20T10:15:55;7.40;;;2.35;;
57443;SDS011;43289;52.962;6.196;2023-12-20T10:18:22;10.70;;;2.20;;
57443;SDS011;43289;52.962;6.196;2023-12-20T10:20:48;7.68;;;2.20;;
57443;SDS011;43289;52.962;6.196;2023-12-20T10:23:15;8.38;;;2.45;;
57443;SDS011;43289;52.962;6.196;2023-12-20T10:25:42;9.57;;;2.08;;
57443;SDS011;43289;52.962;6.196;2023-12-20T10:28:14;9.75;;;2.05;;
57443;SDS011;43289;52.962;6.196;2023-12-20T10:30:44;7.90;;;2.33;;
57443;SDS011;43289;52.962;6.196;2023-12-20T10:33:11;11.52;;;2.28;;
57443;SDS011;43289;52.962;6.196;2023-12-20T10:35:41;8.77;;;2.30;;
57443;SDS011;43289;52.962;6.196;2023-12-20T10:38:07;10.52;;;2.58;;
57443;SDS011;43289;52.962;6.196;2023-12-20T10:40:34;8.20;;;2.35;;
57443;SDS011;43289;52.962;6.196;2023-12-20T10:43:02;10.38;;;1.80;;
57443;SDS011;43289;52.962;6.196;2023-12-20T10:45:28;14.20;;;2.22;;
57443;SDS011;43289;52.962;6.196;2023-12-20T10:47:54;8.27;;;2.53;;
57443;SDS011;43289;52.962;6.196;2023-12-20T10:50:21;13.00;;;2.30;;
57443;SDS011;43289;52.962;6.196;2023-12-20T10:52:47;9.65;;;3.30;;
57443;SDS011;43289;52.962;6.196;2023-12-20T10:55:14;7.68;;;2.63;;
57443;SDS011;43289;52.962;6.196;2023-12-20T10:57:40;10.88;;;2.08;;
57443;SDS011;43289;52.962;6.196;2023-12-20T11:00:08;10.45;;;2.70;;
57443;SDS011;43289;52.962;6.196;2023-12-20T11:02:36;8.02;;;1.83;;
57443;SDS011;43289;52.962;6.196;2023-12-20T11:07:43;7.90;;;2.28;;
57443;SDS011;43289;52.962;6.196;2023-12-20T11:13:06;9.43;;;2.40;;
57443;SDS011;43289;52.962;6.196;2023-12-20T11:15:35;15.07;;;2.58;;
57443;SDS011;43289;52.962;6.196;2023-12-20T11:18:01;6.90;;;1.80;;
57443;SDS011;43289;52.962;6.196;2023-12-20T11:20:39;10.75;;;2.00;;
57443;SDS011;43289;52.962;6.196;2023-12-20T11:23:06;11.20;;;2.92;;
57443;SDS011;43289;52.962;6.196;2023-12-20T11:28:13;9.85;;;3.35;;
57443;SDS011;43289;52.962;6.196;2023-12-20T11:30:40;7.68;;;2.13;;
57443;SDS011;43289;52.962;6.196;2023-12-20T11:33:07;14.48;;;2.90;;
57443;SDS011;43289;52.962;6.196;2023-12-20T11:35:34;11.95;;;3.05;;
57443;SDS011;43289;52.962;6.196;2023-12-20T11:38:01;15.35;;;2.65;;
57443;SDS011;43289;52.962;6.196;2023-12-20T11:40:27;11.98;;;2.25;;
57443;SDS011;43289;52.962;6.196;2023-12-20T11:42:53;12.70;;;3.15;;
57443;SDS011;43289;52.962;6.196;2023-12-20T11:45:21;8.10;;;2.72;;
57443;SDS011;43289;52.962;6.196;2023-12-20T11:47:49;14.57;;;2.70;;
57443;SDS011;43289;52.962;6.196;2023-12-20T11:50:17;9.30;;;2.35;;
57443;SDS011;43289;52.962;6.196;2023-12-20T11:52:43;14.20;;;3.03;;
57443;SDS011;43289;52.962;6.196;2023-12-20T11:55:09;11.10;;;2.60;;
57443;SDS011;43289;52.962;6.196;2023-12-20T11:57:36;13.32;;;2.63;;
57443;SDS011;43289;52.962;6.196;2023-12-20T12:00:03;9.23;;;2.85;;
57443;SDS011;43289;52.962;6.196;2023-12-20T12:02:29;10.38;;;2.53;;
57443;SDS011;43289;52.962;6.196;2023-12-20T12:04:56;6.15;;;2.30;;
57443;SDS011;43289;52.962;6.196;2023-12-20T12:07:23;12.07;;;2.90;;
57443;SDS011;43289;52.962;6.196;2023-12-20T12:09:49;10.98;;;2.50;;
57443;SDS011;43289;52.962;6.196;2023-12-20T12:12:16;13.38;;;3.10;;
57443;SDS011;43289;52.962;6.196;2023-12-20T12:14:42;13.38;;;2.92;;
57443;SDS011;43289;52.962;6.196;2023-12-20T12:17:13;9.43;;;2.17;;
57443;SDS011;43289;52.962;6.196;2023-12-20T12:19:39;9.73;;;2.28;;
57443;SDS011;43289;52.962;6.196;2023-12-20T12:22:12;9.55;;;2.13;;
57443;SDS011;43289;52.962;6.196;2023-12-20T12:24:45;8.35;;;2.78;;
57443;SDS011;43289;52.962;6.196;2023-12-20T12:27:12;13.00;;;3.00;;
57443;SDS011;43289;52.962;6.196;2023-12-20T12:29:38;16.02;;;3.10;;
57443;SDS011;43289;52.962;6.196;2023-12-20T12:32:07;8.63;;;2.33;;
57443;SDS011;43289;52.962;6.196;2023-12-20T12:34:34;12.32;;;3.03;;
57443;SDS011;43289;52.962;6.196;2023-12-20T12:37:00;10.70;;;2.22;;
57443;SDS011;43289;52.962;6.196;2023-12-20T12:42:48;12.88;;;2.67;;
57443;SDS011;43289;52.962;6.196;2023-12-20T12:45:15;12.00;;;2.58;;
57443;SDS011;43289;52.962;6.196;2023-12-20T12:47:41;5.82;;;1.80;;
57443;SDS011;43289;52.962;6.196;2023-12-20T12:50:07;9.70;;;2.30;;
57443;SDS011;43289;52.962;6.196;2023-12-20T12:52:33;7.78;;;1.77;;
57443;SDS011;43289;52.962;6.196;2023-12-20T12:55:00;8.75;;;2.95;;
57443;SDS011;43289;52.962;6.196;2023-12-20T12:57:26;11.05;;;2.90;;
57443;SDS011;43289;52.962;6.196;2023-12-20T12:59:52;9.50;;;2.20;;
57443;SDS011;43289;52.962;6.196;2023-12-20T13:02:18;7.20;;;1.80;;
57443;SDS011;43289;52.962;6.196;2023-12-20T13:04:47;8.00;;;2.10;;
57443;SDS011;43289;52.962;6.196;2023-12-20T13:07:13;9.45;;;2.20;;
57443;SDS011;43289;52.962;6.196;2023-12-20T13:09:40;7.22;;;2.17;;
57443;SDS011;43289;52.962;6.196;2023-12-20T13:12:06;5.97;;;1.77;;
57443;SDS011;43289;52.962;6.196;2023-12-20T13:14:33;8.80;;;2.30;;
57443;SDS011;43289;52.962;6.196;2023-12-20T13:17:00;8.25;;;2.20;;
57443;SDS011;43289;52.962;6.196;2023-12-20T13:19:26;7.30;;;2.58;;
57443;SDS011;43289;52.962;6.196;2023-12-20T13:21:55;10.10;;;2.08;;
57443;SDS011;43289;52.962;6.196;2023-12-20T13:24:31;9.23;;;2.17;;
57443;SDS011;43289;52.962;6.196;2023-12-20T13:26:57;10.02;;;1.95;;
57443;SDS011;43289;52.962;6.196;2023-12-20T13:29:24;14.02;;;5.60;;
57443;SDS011;43289;52.962;6.196;2023-12-20T13:31:55;10.05;;;3.38;;
57443;SDS011;43289;52.962;6.196;2023-12-20T13:34:22;8.32;;;3.70;;
57443;SDS011;43289;52.962;6.196;2023-12-20T13:36:48;8.05;;;3.72;;
57443;SDS011;43289;52.962;6.196;2023-12-20T13:39:15;19.45;;;9.45;;
57443;SDS011;43289;52.962;6.196;2023-12-20T13:41:42;14.57;;;5.75;;
57443;SDS011;43289;52.962;6.196;2023-12-20T13:44:08;13.30;;;4.47;;
57443;SDS011;43289;52.962;6.196;2023-12-20T13:46:34;13.10;;;5.22;;
57443;SDS011;43289;52.962;6.196;2023-12-20T13:49:00;8.30;;;2.40;;
57443;SDS011;43289;52.962;6.196;2023-12-20T13:51:27;7.78;;;2.35;;
57443;SDS011;43289;52.962;6.196;2023-12-20T13:53:53;7.00;;;1.95;;
57443;SDS011;43289;52.962;6.196;2023-12-20T13:56:19;10.35;;;2.45;;
57443;SDS011;43289;52.962;6.196;2023-12-20T13:58:45;6.38;;;2.00;;
57443;SDS011;43289;52.962;6.196;2023-12-20T14:01:12;8.68;;;2.15;;
57443;SDS011;43289;52.962;6.196;2023-12-20T14:03:38;12.20;;;2.88;;
57443;SDS011;43289;52.962;6.196;2023-12-20T14:06:04;10.50;;;3.15;;
57443;SDS011;43289;52.962;6.196;2023-12-20T14:08:31;9.43;;;2.35;;
57443;SDS011;43289;52.962;6.196;2023-12-20T14:10:57;8.60;;;2.92;;
57443;SDS011;43289;52.962;6.196;2023-12-20T14:13:23;8.38;;;3.15;;
57443;SDS011;43289;52.962;6.196;2023-12-20T14:15:54;9.93;;;3.03;;
57443;SDS011;43289;52.962;6.196;2023-12-20T14:18:20;12.68;;;2.58;;
57443;SDS011;43289;52.962;6.196;2023-12-20T14:20:47;10.65;;;2.88;;
57443;SDS011;43289;52.962;6.196;2023-12-20T14:23:15;8.13;;;2.33;;
57443;SDS011;43289;52.962;6.196;2023-12-20T14:25:41;7.13;;;2.75;;
57443;SDS011;43289;52.962;6.196;2023-12-20T14:28:07;9.50;;;2.40;;
57443;SDS011;43289;52.962;6.196;2023-12-20T14:30:35;6.63;;;2.25;;
57443;SDS011;43289;52.962;6.196;2023-12-20T14:33:03;20.98;;;7.55;;
57443;SDS011;43289;52.962;6.196;2023-12-20T14:35:29;13.32;;;2.90;;
57443;SDS011;43289;52.962;6.196;2023-12-20T14:37:55;10.40;;;2.80;;
57443;SDS011;43289;52.962;6.196;2023-12-20T14:40:21;6.68;;;2.65;;
57443;SDS011;43289;52.962;6.196;2023-12-20T14:42:47;13.30;;;3.33;;
57443;SDS011;43289;52.962;6.196;2023-12-20T14:45:14;10.32;;;2.97;;
57443;SDS011;43289;52.962;6.196;2023-12-20T14:47:41;12.95;;;3.63;;
57443;SDS011;43289;52.962;6.196;2023-12-20T14:50:07;13.60;;;2.20;;
57443;SDS011;43289;52.962;6.196;2023-12-20T14:52:33;8.35;;;2.50;;
57443;SDS011;43289;52.962;6.196;2023-12-20T14:55:00;8.93;;;2.35;;
57443;SDS011;43289;52.962;6.196;2023-12-20T14:57:27;10.93;;;2.47;;
57443;SDS011;43289;52.962;6.196;2023-12-20T14:59:54;11.18;;;2.65;;
57443;SDS011;43289;52.962;6.196;2023-12-20T15:02:20;13.13;;;2.85;;